N6861W KOKV-KLVL
Flight info
| Callsign | N6861W |
|---|---|
| Flight time | N/A |
| Altitude | 11000 |
| Route | KOKV DCT LDN DCT GVE DCT FAK DCT KLVL |
| Aircraft | PA28/L-SDR/C |
Departure
| Time | 2026-04-16 17:00 |
|---|---|
| Airport | Winchester Regional Airport (KOKV) |
Arrival
| Time | N/A |
|---|---|
| Airport | Brunswick Municipal Airport (KLVL) |
| Time | Latitude | Longitude | Altitude | Speed | Heading |
|---|---|---|---|---|---|
| 2026-04-16 17:00 | 39.01184 | -78.18080 | 8564 ft | 85 kts | 200° |
| 2026-04-16 17:00 | 39.00608 | -78.18199 | 8733 ft | 82 kts | 199° |
| 2026-04-16 17:01 | 39.00057 | -78.18299 | 8902 ft | 78 kts | 198° |
| 2026-04-16 17:01 | 38.99541 | -78.18385 | 9058 ft | 71 kts | 197° |
| 2026-04-16 17:01 | 38.99073 | -78.18456 | 9209 ft | 64 kts | 199° |
| 2026-04-16 17:01 | 38.98653 | -78.18519 | 9346 ft | 57 kts | 200° |
| 2026-04-16 17:02 | 38.98270 | -78.18561 | 9385 ft | 57 kts | 198° |
| 2026-04-16 17:02 | 38.97830 | -78.18582 | 9421 ft | 69 kts | 195° |
| 2026-04-16 17:02 | 38.97335 | -78.18653 | 9596 ft | 74 kts | 197° |
| 2026-04-16 17:02 | 38.96809 | -78.18647 | 9846 ft | 77 kts | 185° |
| 2026-04-16 17:03 | 38.96269 | -78.18454 | 10033 ft | 87 kts | 175° |
| 2026-04-16 17:03 | 38.95680 | -78.18109 | 10178 ft | 99 kts | 168° |
| 2026-04-16 17:03 | 38.95059 | -78.17626 | 10321 ft | 109 kts | 161° |
| 2026-04-16 17:03 | 38.94427 | -78.17017 | 10462 ft | 118 kts | 155° |
| 2026-04-16 17:04 | 38.93794 | -78.16289 | 10597 ft | 125 kts | 150° |
| 2026-04-16 17:04 | 38.93175 | -78.15446 | 10736 ft | 134 kts | 145° |
| 2026-04-16 17:04 | 38.92565 | -78.14504 | 10839 ft | 138 kts | 144° |
| 2026-04-16 17:04 | 38.92044 | -78.14074 | 10809 ft | 132 kts | 174° |
| 2026-04-16 17:05 | 38.91198 | -78.14033 | 11022 ft | 115 kts | 193° |
| 2026-04-16 17:05 | 38.90687 | -78.14119 | 11103 ft | 115 kts | 200° |